createdAt,value
2022-08-22T00:01:56.436Z,20.10
2022-08-22T00:02:57.486Z,20.70
2022-08-22T00:03:01.249Z,22.00
2022-08-22T00:04:34.426Z,20.10
2022-08-22T00:07:15.103Z,20.10
2022-08-22T00:09:51.196Z,20.10
2022-08-22T00:12:27.607Z,20.10
2022-08-22T00:15:04.661Z,20.20
2022-08-22T00:17:48.312Z,20.10
2022-08-22T00:20:28.122Z,20.10
2022-08-22T00:23:12.352Z,20.00
2022-08-22T00:25:50.483Z,20.00
2022-08-22T00:28:24.762Z,19.90
2022-08-22T00:31:01.013Z,19.90
2022-08-22T00:33:44.418Z,20.00
2022-08-22T00:36:26.436Z,20.00
2022-08-22T00:39:07.223Z,20.00
2022-08-22T00:42:12.713Z,20.10
2022-08-22T00:45:15.226Z,20.20
2022-08-22T00:48:00.265Z,20.10
2022-08-22T00:51:07.977Z,20.00
2022-08-22T00:53:53.806Z,20.00
2022-08-22T00:56:55.102Z,20.00
2022-08-22T00:59:50.534Z,19.90
2022-08-22T01:02:33.786Z,19.90
2022-08-22T01:05:24.855Z,19.90
2022-08-22T01:08:12.688Z,19.80
2022-08-22T01:10:56.831Z,19.80
2022-08-22T01:13:42.368Z,19.80
2022-08-22T01:16:29.105Z,19.80
2022-08-22T01:19:28.313Z,19.70
2022-08-22T01:22:36.470Z,19.70
2022-08-22T01:25:51.764Z,19.70
2022-08-22T01:28:57.473Z,19.70
2022-08-22T01:32:02.559Z,19.70
2022-08-22T01:35:13.601Z,19.60
2022-08-22T01:38:09.943Z,19.60
2022-08-22T01:41:06.382Z,19.60
2022-08-22T01:44:05.321Z,19.60
2022-08-22T01:46:47.811Z,19.60
2022-08-22T01:49:24.061Z,19.50
2022-08-22T01:52:03.787Z,19.50
2022-08-22T01:54:43.819Z,19.50
2022-08-22T01:57:15.289Z,19.60
2022-08-22T01:59:49.575Z,19.60
2022-08-22T02:02:48.519Z,19.60
2022-08-22T02:05:28.489Z,19.60
2022-08-22T02:08:06.662Z,19.60
2022-08-22T02:10:51.997Z,19.60
2022-08-22T02:13:36.327Z,19.60
2022-08-22T02:16:15.046Z,19.40
2022-08-22T02:18:57.161Z,19.50
2022-08-22T02:21:35.832Z,19.50
2022-08-22T02:24:21.743Z,19.50
2022-08-22T02:27:06.324Z,19.50
2022-08-22T02:29:46.557Z,19.40
2022-08-22T02:32:25.451Z,19.40
2022-08-22T02:35:05.831Z,19.40
2022-08-22T02:37:43.320Z,19.50
2022-08-22T02:40:24.299Z,19.50
2022-08-22T02:43:03.082Z,19.50
2022-08-22T02:45:43.676Z,19.50
2022-08-22T02:48:35.829Z,19.50
2022-08-22T02:51:13.934Z,19.50
2022-08-22T02:53:52.920Z,19.50
2022-08-22T02:56:34.586Z,19.50
2022-08-22T02:59:19.408Z,19.50
2022-08-22T03:01:51.457Z,19.40
2022-08-22T03:04:29.863Z,19.50
2022-08-22T03:07:11.737Z,19.50
2022-08-22T03:09:49.608Z,19.50
2022-08-22T03:12:32.304Z,19.50
2022-08-22T03:15:10.004Z,19.40
2022-08-22T03:17:49.177Z,19.40
2022-08-22T03:20:39.406Z,19.40
2022-08-22T03:23:12.551Z,19.50
2022-08-22T03:25:48.807Z,19.40
2022-08-22T03:28:26.686Z,19.40
2022-08-22T03:31:02.855Z,19.50
2022-08-22T03:33:34.425Z,19.40
2022-08-22T03:36:12.474Z,19.40
2022-08-22T03:39:07.299Z,19.30
2022-08-22T03:42:13.012Z,19.30
2022-08-22T03:45:09.982Z,19.30
2022-08-22T03:48:09.343Z,19.40
2022-08-22T03:51:14.157Z,19.40
2022-08-22T03:54:15.866Z,19.40
2022-08-22T03:57:21.916Z,18.40
2022-08-22T04:00:34.098Z,19.50
2022-08-22T04:03:36.179Z,19.50
2022-08-22T04:06:39.697Z,19.30
2022-08-22T04:09:49.361Z,19.30
2022-08-22T04:12:51.417Z,19.30
2022-08-22T04:15:55.579Z,19.30
2022-08-22T04:18:58.641Z,19.20
2022-08-22T04:21:55.222Z,19.20
2022-08-22T04:24:52.602Z,19.10
2022-08-22T04:27:30.356Z,19.20
2022-08-22T04:30:08.359Z,19.20
2022-08-22T04:32:48.013Z,19.10
2022-08-22T04:35:28.899Z,19.20
2022-08-22T04:38:02.055Z,19.10
2022-08-22T04:40:40.215Z,19.20
2022-08-22T04:43:15.358Z,19.20
2022-08-22T04:45:53.135Z,19.10
2022-08-22T04:48:33.933Z,19.20
2022-08-22T04:51:08.710Z,19.10
2022-08-22T04:53:58.881Z,19.20
2022-08-22T04:56:33.604Z,19.10
2022-08-22T04:59:07.337Z,19.20
2022-08-22T05:01:45.191Z,19.10
2022-08-22T05:04:22.727Z,19.10
2022-08-22T05:06:57.179Z,19.00
2022-08-22T05:09:30.432Z,19.00
2022-08-22T05:12:05.646Z,19.10
2022-08-22T05:14:42.123Z,19.10
2022-08-22T05:17:15.650Z,19.10
2022-08-22T05:19:53.239Z,19.10
2022-08-22T05:22:28.009Z,19.10
2022-08-22T05:25:02.587Z,19.20
2022-08-22T05:27:36.633Z,19.20
2022-08-22T05:30:13.316Z,19.20
2022-08-22T05:32:51.860Z,19.20
2022-08-22T05:35:36.482Z,19.20
2022-08-22T05:38:09.562Z,19.20
2022-08-22T05:40:41.009Z,19.20
2022-08-22T05:43:14.264Z,19.20
2022-08-22T05:45:49.218Z,19.20
2022-08-22T05:48:21.422Z,19.20
2022-08-22T05:50:58.723Z,19.30
2022-08-22T05:53:33.063Z,19.30
2022-08-22T05:56:06.449Z,19.30
2022-08-22T05:58:52.626Z,19.30
2022-08-22T06:01:31.654Z,19.30
2022-08-22T06:04:09.935Z,19.40
2022-08-22T06:06:49.692Z,19.50
2022-08-22T06:09:25.991Z,19.50
2022-08-22T06:12:16.498Z,19.50
2022-08-22T06:15:02.142Z,19.50
2022-08-22T06:17:37.310Z,19.40
2022-08-22T06:20:11.159Z,19.40
2022-08-22T06:22:52.249Z,19.50
2022-08-22T06:25:27.502Z,19.60
2022-08-22T06:27:59.643Z,19.50
2022-08-22T06:30:32.086Z,19.50
2022-08-22T06:33:05.944Z,19.50
2022-08-22T06:35:51.356Z,19.60
2022-08-22T06:38:28.577Z,19.60
2022-08-22T06:41:01.483Z,19.70
2022-08-22T06:43:39.694Z,19.60
2022-08-22T06:46:10.641Z,19.60
2022-08-22T06:48:41.879Z,19.60
2022-08-22T06:51:13.986Z,19.60
2022-08-22T06:53:49.868Z,19.60
2022-08-22T06:56:24.617Z,19.60
2022-08-22T06:58:58.809Z,19.70
2022-08-22T07:01:33.561Z,19.80
2022-08-22T07:04:08.425Z,19.70
2022-08-22T07:06:41.916Z,19.80
2022-08-22T07:09:25.054Z,19.90
2022-08-22T07:11:57.369Z,19.90
2022-08-22T07:14:34.307Z,19.90
2022-08-22T07:17:08.385Z,19.90
2022-08-22T07:19:41.860Z,20.00
2022-08-22T07:22:18.471Z,20.00
2022-08-22T07:24:56.334Z,20.10
2022-08-22T07:27:43.569Z,20.20
2022-08-22T07:30:27.440Z,20.50
2022-08-22T07:33:25.899Z,20.50
2022-08-22T07:35:58.706Z,20.40
2022-08-22T07:38:43.121Z,20.40
2022-08-22T07:41:20.187Z,20.50
2022-08-22T07:43:54.914Z,20.50
2022-08-22T07:46:31.509Z,20.40
2022-08-22T07:49:09.666Z,20.30
2022-08-22T07:51:50.802Z,20.30
2022-08-22T07:54:28.808Z,20.40
2022-08-22T07:57:07.189Z,20.50
2022-08-22T07:59:39.987Z,20.60
2022-08-22T08:02:15.601Z,20.80
2022-08-22T08:04:46.895Z,21.00
2022-08-22T08:07:19.828Z,21.10
2022-08-22T08:09:54.172Z,21.30
2022-08-22T08:12:37.183Z,21.20
2022-08-22T08:15:11.370Z,21.40
2022-08-22T08:17:43.027Z,21.80
2022-08-22T08:20:17.453Z,22.00
2022-08-22T08:22:49.032Z,22.30
2022-08-22T08:25:23.021Z,22.90
2022-08-22T08:28:09.827Z,23.40
2022-08-22T08:30:45.968Z,23.50
2022-08-22T08:33:26.207Z,23.50
2022-08-22T08:36:04.078Z,23.40
2022-08-22T08:38:39.305Z,23.40
2022-08-22T08:41:41.745Z,23.60
2022-08-22T08:44:26.813Z,23.70
2022-08-22T08:47:23.008Z,23.40
2022-08-22T08:50:29.909Z,23.10
2022-08-22T08:53:38.236Z,23.00
2022-08-22T08:56:21.991Z,23.00
2022-08-22T08:59:10.879Z,23.10
2022-08-22T09:02:08.488Z,23.20
2022-08-22T09:05:13.673Z,23.40
2022-08-22T09:08:01.039Z,23.70
2022-08-22T09:10:57.880Z,23.90
2022-08-22T09:13:50.984Z,23.90
2022-08-22T09:16:47.278Z,24.20
2022-08-22T09:19:50.635Z,24.60
2022-08-22T09:22:50.069Z,25.20
2022-08-22T09:25:29.664Z,25.60
2022-08-22T09:28:20.493Z,25.60
2022-08-22T09:31:21.155Z,25.50
2022-08-22T09:34:10.752Z,25.40
2022-08-22T09:36:59.306Z,25.30
2022-08-22T09:39:37.083Z,25.20
2022-08-22T09:42:20.386Z,25.10
2022-08-22T09:45:01.303Z,25.30
2022-08-22T09:47:39.334Z,25.80
2022-08-22T09:50:17.587Z,26.50
2022-08-22T09:53:04.917Z,27.30
2022-08-22T09:55:45.662Z,28.10
2022-08-22T09:58:27.853Z,28.70
2022-08-22T10:01:07.137Z,28.50
2022-08-22T10:04:30.802Z,28.80
2022-08-22T10:07:12.020Z,28.50
2022-08-22T10:09:57.885Z,29.60
2022-08-22T10:12:36.092Z,31.10
2022-08-22T10:15:17.934Z,31.60
2022-08-22T10:18:02.213Z,32.10
2022-08-22T10:20:46.766Z,33.10
2022-08-22T10:23:23.970Z,34.40
2022-08-22T10:26:04.485Z,35.30
2022-08-22T10:28:41.610Z,35.50
2022-08-22T10:31:42.853Z,35.80
2022-08-22T10:34:36.965Z,36.20
2022-08-22T10:37:15.596Z,36.40
2022-08-22T10:39:50.267Z,36.60
2022-08-22T10:42:35.151Z,36.90
2022-08-22T10:45:35.291Z,37.60
2022-08-22T10:48:36.932Z,38.20
2022-08-22T10:51:16.529Z,39.00
2022-08-22T10:54:03.130Z,38.50
2022-08-22T10:56:40.579Z,38.70
2022-08-22T10:59:29.209Z,38.50
2022-08-22T11:02:10.521Z,38.80
2022-08-22T11:04:58.500Z,38.10
2022-08-22T11:07:48.936Z,36.50
2022-08-22T11:10:30.482Z,35.30
2022-08-22T11:13:15.843Z,35.50
2022-08-22T11:16:01.059Z,36.40
2022-08-22T11:19:14.671Z,36.30
2022-08-22T11:22:03.770Z,35.50
2022-08-22T11:25:06.224Z,35.10
2022-08-22T11:27:45.806Z,34.70
2022-08-22T11:30:18.377Z,34.50
2022-08-22T11:33:18.097Z,34.10
2022-08-22T11:35:54.852Z,33.70
2022-08-22T11:38:33.500Z,32.70
2022-08-22T11:41:11.240Z,32.30
2022-08-22T11:43:50.839Z,31.80
2022-08-22T11:46:26.960Z,31.70
2022-08-22T11:49:19.499Z,31.70
2022-08-22T11:52:19.851Z,31.40
2022-08-22T11:55:12.693Z,31.30
2022-08-22T11:57:45.967Z,31.40
2022-08-22T12:00:29.267Z,31.50
2022-08-22T12:03:29.543Z,31.00
2022-08-22T12:06:09.093Z,30.80
2022-08-22T12:09:09.259Z,30.70
2022-08-22T12:11:48.423Z,30.80
2022-08-22T12:14:26.905Z,30.70
2022-08-22T12:17:21.284Z,30.60
2022-08-22T12:20:16.394Z,30.40
2022-08-22T12:23:12.444Z,30.60
2022-08-22T12:25:58.572Z,30.50
2022-08-22T12:28:36.128Z,30.20
2022-08-22T12:31:18.147Z,30.20
2022-08-22T12:34:12.414Z,30.10
2022-08-22T12:36:55.981Z,30.20
2022-08-22T12:39:52.323Z,30.40
2022-08-22T12:42:52.327Z,30.70
2022-08-22T12:45:46.285Z,30.50
2022-08-22T12:48:36.575Z,30.30
2022-08-22T12:51:25.272Z,30.10
2022-08-22T12:54:29.905Z,30.10
2022-08-22T12:57:23.464Z,30.20
2022-08-22T12:59:59.098Z,30.10
2022-08-22T13:02:36.064Z,29.80
2022-08-22T13:05:19.920Z,29.40
2022-08-22T13:07:55.740Z,29.30
2022-08-22T13:10:35.104Z,29.30
2022-08-22T13:13:12.222Z,29.20
2022-08-22T13:15:46.988Z,29.00
2022-08-22T13:18:31.217Z,28.90
2022-08-22T13:21:07.924Z,28.80
2022-08-22T13:23:44.813Z,28.80
2022-08-22T13:26:31.978Z,29.10
2022-08-22T13:29:26.567Z,29.30
2022-08-22T13:32:02.078Z,29.40
2022-08-22T13:34:43.514Z,29.10
2022-08-22T13:37:20.137Z,29.10
2022-08-22T13:39:57.811Z,29.10
2022-08-22T13:42:31.374Z,29.10
2022-08-22T13:45:13.435Z,29.10
2022-08-22T13:47:57.836Z,28.30
2022-08-22T13:50:37.529Z,28.80
2022-08-22T13:53:29.698Z,28.70
2022-08-22T13:56:15.618Z,28.60
2022-08-22T13:58:49.631Z,28.60
2022-08-22T14:01:43.693Z,28.70
2022-08-22T14:04:33.297Z,28.50
2022-08-22T14:07:25.595Z,28.60
2022-08-22T14:09:59.503Z,28.10
2022-08-22T14:12:50.543Z,27.80
2022-08-22T14:15:26.364Z,27.90
2022-08-22T14:18:14.026Z,27.80
2022-08-22T14:20:46.704Z,27.60
2022-08-22T14:23:27.093Z,27.70
2022-08-22T14:25:58.441Z,27.80
2022-08-22T14:28:32.585Z,27.90
2022-08-22T14:31:07.468Z,27.90
2022-08-22T14:33:48.149Z,28.00
2022-08-22T14:36:21.530Z,28.10
2022-08-22T14:38:56.255Z,28.00
2022-08-22T14:41:56.331Z,28.10
2022-08-22T14:44:27.810Z,28.00
2022-08-22T14:47:02.082Z,27.90
2022-08-22T14:49:52.654Z,27.70
2022-08-22T14:52:36.894Z,27.80
2022-08-22T14:55:14.886Z,27.60
2022-08-22T14:57:49.700Z,27.60
2022-08-22T15:00:34.323Z,27.60
2022-08-22T15:03:13.658Z,27.60
2022-08-22T15:05:50.914Z,27.50
2022-08-22T15:08:30.646Z,27.50
2022-08-22T15:11:23.883Z,27.30
2022-08-22T15:14:05.736Z,27.30
2022-08-22T15:16:40.392Z,27.30
2022-08-22T15:19:27.296Z,27.10
2022-08-22T15:22:13.911Z,27.10
2022-08-22T15:24:47.617Z,27.20
2022-08-22T15:27:21.809Z,27.40
2022-08-22T15:29:55.741Z,27.40
2022-08-22T15:32:27.954Z,27.20
2022-08-22T15:35:08.064Z,27.10
2022-08-22T15:37:58.300Z,27.10
2022-08-22T15:40:40.744Z,27.10
2022-08-22T15:43:28.862Z,26.80
2022-08-22T15:46:20.285Z,26.70
2022-08-22T15:49:02.064Z,26.50
2022-08-22T15:51:40.456Z,26.50
2022-08-22T15:54:24.824Z,26.70
2022-08-22T15:57:18.519Z,26.70
2022-08-22T15:59:58.178Z,26.60
2022-08-22T16:02:35.390Z,26.70
2022-08-22T16:05:26.042Z,26.80
2022-08-22T16:08:07.152Z,28.20
2022-08-22T16:10:44.478Z,26.80
2022-08-22T16:13:34.697Z,26.70
2022-08-22T16:16:12.280Z,26.70
2022-08-22T16:19:24.180Z,26.70
2022-08-22T16:22:12.540Z,26.70
2022-08-22T16:25:05.240Z,26.70
2022-08-22T16:27:39.019Z,26.50
2022-08-22T16:30:17.112Z,26.50
2022-08-22T16:32:58.131Z,26.50
2022-08-22T16:35:58.149Z,26.60
2022-08-22T16:38:33.697Z,26.40
2022-08-22T16:41:07.488Z,26.50
2022-08-22T16:43:40.331Z,26.50
2022-08-22T16:46:36.530Z,26.40
2022-08-22T16:49:06.924Z,26.40
2022-08-22T16:51:37.241Z,26.30
2022-08-22T16:54:46.368Z,26.20
2022-08-22T16:57:24.664Z,26.10
2022-08-22T17:00:09.875Z,26.20
2022-08-22T17:03:02.119Z,26.20
2022-08-22T17:05:43.687Z,26.20
2022-08-22T17:08:26.010Z,26.10
2022-08-22T17:11:05.659Z,26.10
2022-08-22T17:13:52.693Z,26.10
2022-08-22T17:16:54.204Z,26.10
2022-08-22T17:19:46.846Z,26.20
2022-08-22T17:22:29.206Z,26.10
2022-08-22T17:25:22.491Z,26.10
2022-08-22T17:27:58.289Z,26.10
2022-08-22T17:30:38.164Z,26.10
2022-08-22T17:33:19.427Z,26.00
2022-08-22T17:36:03.733Z,26.00
2022-08-22T17:38:48.069Z,26.00
2022-08-22T17:41:32.082Z,25.90
2022-08-22T17:44:11.837Z,25.90
2022-08-22T17:46:50.023Z,25.90
2022-08-22T17:49:31.480Z,25.80
2022-08-22T17:52:10.206Z,25.70
2022-08-22T17:54:45.156Z,25.70
2022-08-22T17:57:27.051Z,25.70
2022-08-22T18:00:02.407Z,25.60
2022-08-22T18:02:39.348Z,25.70
2022-08-22T18:05:19.541Z,25.70
2022-08-22T18:08:03.508Z,25.60
2022-08-22T18:10:44.689Z,25.50
2022-08-22T18:13:17.705Z,25.50
2022-08-22T18:15:53.247Z,25.50
2022-08-22T18:18:31.366Z,25.40
2022-08-22T18:21:11.081Z,25.30
2022-08-22T18:23:45.114Z,25.40
2022-08-22T18:26:27.050Z,25.40
2022-08-22T18:29:02.337Z,25.20
2022-08-22T18:31:40.934Z,25.20
2022-08-22T18:34:21.920Z,25.20
2022-08-22T18:37:03.571Z,25.20
2022-08-22T18:39:43.964Z,25.10
2022-08-22T18:42:25.956Z,25.10
2022-08-22T18:44:56.143Z,25.00
2022-08-22T18:47:30.093Z,25.10
2022-08-22T18:50:00.637Z,25.00
2022-08-22T18:52:41.655Z,25.10
2022-08-22T18:55:33.777Z,25.10
2022-08-22T18:58:28.839Z,25.10
2022-08-22T19:01:21.425Z,25.00
2022-08-22T19:04:10.203Z,25.00
2022-08-22T19:06:55.270Z,25.10
2022-08-22T19:09:51.415Z,25.10
2022-08-22T19:12:40.746Z,25.00
2022-08-22T19:15:27.581Z,25.00
2022-08-22T19:18:27.152Z,25.00
2022-08-22T19:21:32.206Z,25.00
2022-08-22T19:24:02.955Z,24.90
2022-08-22T19:26:48.127Z,24.90
2022-08-22T19:29:48.191Z,24.80
2022-08-22T19:33:03.201Z,24.70
2022-08-22T19:36:06.090Z,24.70
2022-08-22T19:38:50.928Z,24.70
2022-08-22T19:41:40.326Z,24.60
2022-08-22T19:44:33.307Z,24.60
2022-08-22T19:47:10.362Z,24.50
2022-08-22T19:49:43.955Z,24.50
2022-08-22T19:52:28.213Z,24.40
2022-08-22T19:55:12.113Z,24.40
2022-08-22T19:57:49.339Z,24.20
2022-08-22T20:00:26.090Z,24.10
2022-08-22T20:03:04.720Z,24.10
2022-08-22T20:05:57.076Z,24.20
2022-08-22T20:08:42.854Z,24.00
2022-08-22T20:11:25.882Z,23.90
2022-08-22T20:14:14.292Z,23.90
2022-08-22T20:17:14.043Z,23.80
2022-08-22T20:22:47.173Z,23.80
2022-08-22T20:25:42.243Z,23.70
2022-08-22T20:28:30.069Z,23.60
2022-08-22T20:31:02.473Z,23.60
2022-08-22T20:33:38.374Z,23.60
2022-08-22T20:36:16.688Z,23.50
2022-08-22T20:39:04.571Z,23.40
2022-08-22T20:41:38.821Z,23.30
2022-08-22T20:44:16.050Z,23.30
2022-08-22T20:46:55.253Z,23.20
2022-08-22T20:49:31.632Z,23.20
2022-08-22T20:52:05.024Z,23.00
2022-08-22T20:54:38.117Z,23.00
2022-08-22T20:57:17.367Z,22.90
2022-08-22T20:59:55.976Z,22.80
2022-08-22T21:02:30.386Z,22.80
2022-08-22T21:05:05.412Z,22.70
2022-08-22T21:07:38.456Z,22.70
2022-08-22T21:10:23.774Z,22.70
2022-08-22T21:13:09.800Z,22.70
2022-08-22T21:15:43.644Z,22.70
2022-08-22T21:18:26.151Z,22.70
2022-08-22T21:21:17.049Z,22.80
2022-08-22T21:23:50.427Z,22.80
2022-08-22T21:26:26.381Z,22.80
2022-08-22T21:29:00.190Z,22.70
2022-08-22T21:31:34.073Z,22.60
2022-08-22T21:34:06.006Z,22.60
2022-08-22T21:36:41.110Z,22.60
2022-08-22T21:39:19.109Z,22.60
2022-08-22T21:41:53.217Z,22.60
2022-08-22T21:44:31.426Z,22.50
2022-08-22T21:47:19.129Z,22.50
2022-08-22T21:50:10.958Z,22.60
2022-08-22T21:52:46.475Z,22.70
2022-08-22T21:55:28.290Z,22.80
2022-08-22T21:58:36.625Z,22.80
2022-08-22T22:01:31.411Z,22.70
2022-08-22T22:04:02.485Z,22.60
2022-08-22T22:06:32.711Z,22.60
2022-08-22T22:09:05.535Z,22.60
2022-08-22T22:11:35.810Z,22.60
2022-08-22T22:14:06.020Z,22.60
2022-08-22T22:16:37.887Z,22.50
2022-08-22T22:19:11.929Z,22.40
2022-08-22T22:21:42.215Z,22.30
2022-08-22T22:24:15.082Z,22.30
2022-08-22T22:26:45.353Z,22.30
2022-08-22T22:29:15.507Z,22.20
2022-08-22T22:31:45.816Z,22.10
2022-08-22T22:34:16.043Z,22.00
2022-08-22T22:36:46.747Z,21.90
2022-08-22T22:39:19.803Z,21.90
2022-08-22T22:41:50.046Z,21.90
2022-08-22T22:44:21.571Z,21.80
2022-08-22T22:46:52.658Z,21.70
2022-08-22T22:49:22.765Z,21.60
2022-08-22T22:51:53.042Z,21.60
2022-08-22T22:54:27.310Z,21.60
2022-08-22T22:56:58.539Z,21.60
2022-08-22T22:59:29.102Z,21.60
2022-08-22T23:02:05.126Z,21.50
2022-08-22T23:04:36.846Z,21.50
2022-08-22T23:07:08.212Z,21.50
2022-08-22T23:09:44.973Z,21.50
2022-08-22T23:12:15.388Z,21.60
2022-08-22T23:14:45.271Z,21.60
2022-08-22T23:17:16.105Z,21.60
2022-08-22T23:19:47.647Z,21.50
2022-08-22T23:22:18.134Z,21.50
2022-08-22T23:24:52.578Z,21.50
2022-08-22T23:27:22.889Z,21.40
2022-08-22T23:29:53.248Z,21.40
2022-08-22T23:32:23.594Z,21.30
2022-08-22T23:34:56.364Z,21.30
2022-08-22T23:37:26.818Z,21.30
2022-08-22T23:39:59.668Z,21.40
2022-08-22T23:42:30.053Z,21.40
2022-08-22T23:45:00.793Z,21.40
2022-08-22T23:47:31.130Z,21.50
2022-08-22T23:50:04.318Z,21.50
2022-08-22T23:52:36.754Z,21.50
2022-08-22T23:55:10.416Z,21.50
2022-08-22T23:57:40.770Z,21.40
